Adams, Tennessee
Current Conditions -  °F | °C
As of 3:35 PM on Saturday 22 Nov 2014 (Local Time) from KM91 Reporting Station
Clear Clear  
Wind Chill: 63°   Ceiling: Unl
Heat Index: 63°   Visibility: 10mi
Dew Point: 36°   Wind: 13mph
Humidity: 37%   Direction: 180°S
Pressure: 30.12"   Gusts: NA
Location:  36.58°N, 87.07°W
Report Text: KM91 222135Z AUTO 18011KT 10SM CLR 17/02 A3012 RMK
Loading
Personal Weather Stations






























Interactive Weather Map New forecast layout! Learn more

10-Day Weather Forecast

Advertisements
Track Severe Weather on mobile